Time;durP1;ratioP1;P1;durP2;ratioP2;P2;SDS_P1;SDS_P2;PMS_P1;PMS_P2;Temp;Humidity;BMP_temperature;BMP_pressure;BME280_temperature;BME280_humidity;BME280_pressure;Samples;Min_cycle;Max_cycle;Signal;HPM_P1;HPM_P2
2022/12/25 00:00:15;;;;;;;0.43;0.43;;;;;;;2.61;100.00;101305.94;10593703;27;20095;-81
2022/12/25 00:05:21;;;;;;;1.60;1.05;;;;;;;2.55;100.00;101312.44;10588087;27;20468;-78
2022/12/25 00:10:24;;;;;;;3.40;2.40;;;;;;;2.45;100.00;101321.38;10566592;27;20120;-78
2022/12/25 00:15:26;;;;;;;2.03;1.83;;;;;;;2.41;100.00;101324.56;10575864;27;20090;-77
2022/12/25 00:20:28;;;;;;;4.43;3.97;;;;;;;2.32;100.00;101314.56;10578598;27;20426;-78
2022/12/25 00:25:29;;;;;;;4.30;2.25;;;;;;;2.27;100.00;101321.19;10569277;27;20503;-78
2022/12/25 00:30:31;;;;;;;4.95;2.45;;;;;;;2.16;100.00;101311.88;10551655;28;20051;-79
2022/12/25 00:35:32;;;;;;;2.60;1.70;;;;;;;2.07;100.00;101319.97;10567566;27;20039;-80
2022/12/25 00:40:41;;;;;;;3.92;2.72;;;;;;;2.18;100.00;101325.78;10556474;28;20044;-79
2022/12/25 00:45:43;;;;;;;4.63;3.35;;;;;;;2.42;100.00;101316.03;10574261;28;20034;-79
2022/12/25 00:50:44;;;;;;;9.20;8.30;;;;;;;2.42;100.00;101303.97;10551312;28;20051;-80
2022/12/25 00:55:53;;;;;;;4.63;2.85;;;;;;;2.46;100.00;101312.78;10549051;28;20055;-79
2022/12/25 01:00:56;;;;;;;6.35;5.75;;;;;;;2.44;100.00;101297.19;10569629;28;20043;-79
2022/12/25 01:06:03;;;;;;;2.75;1.55;;;;;;;2.38;100.00;101303.72;10568776;28;20504;-79
2022/12/25 01:11:07;;;;;;;0.63;0.63;;;;;;;2.22;100.00;101308.00;10549534;28;20051;-80
2022/12/25 01:16:10;;;;;;;1.27;1.17;;;;;;;2.15;100.00;101307.50;10558641;28;20404;-79
2022/12/25 01:21:15;;;;;;;0.28;0.28;;;;;;;2.20;100.00;101326.78;10566714;28;20431;-79
2022/12/25 01:26:19;;;;;;;0.45;0.45;;;;;;;2.26;100.00;101322.84;10565732;28;20051;-79
2022/12/25 01:31:22;;;;;;;2.42;1.80;;;;;;;2.38;100.00;101324.38;10549032;27;20051;-79
2022/12/25 01:36:25;;;;;;;0.73;0.73;;;;;;;2.36;100.00;101331.13;10567128;28;20043;-77
2022/12/25 01:41:27;;;;;;;0.85;0.75;;;;;;;2.35;100.00;101316.47;10567618;28;20075;-79
2022/12/25 01:46:29;;;;;;;0.75;0.75;;;;;;;2.29;100.00;101323.03;10569325;28;20537;-79
2022/12/25 01:51:51;;;;;;;0.52;0.52;;;;;;;2.23;100.00;101324.38;10575152;28;20134;-79
2022/12/25 01:56:58;;;;;;;0.32;0.32;;;;;;;2.21;100.00;101332.03;10555966;28;20039;-79
2022/12/25 02:01:59;;;;;;;0.65;0.60;;;;;;;2.21;100.00;101337.19;10555885;28;20035;-79
2022/12/25 02:07:01;;;;;;;1.65;1.48;;;;;;;2.15;100.00;101346.25;10577331;28;20044;-80
2022/12/25 02:12:04;;;;;;;1.45;1.00;;;;;;;2.11;100.00;101348.66;10577127;28;20488;-80
2022/12/25 02:17:23;;;;;;;1.95;0.77;;;;;;;2.19;100.00;101358.56;10576470;28;20044;-80
2022/12/25 02:22:41;;;;;;;1.20;1.02;;;;;;;2.31;100.00;101354.13;10567501;28;20328;-77
2022/12/25 02:27:45;;;;;;;0.65;0.65;;;;;;;2.50;100.00;101348.38;10543788;28;20560;-77
2022/12/25 02:32:50;;;;;;;0.65;0.65;;;;;;;2.77;100.00;101341.31;10538361;28;20810;-78
2022/12/25 02:38:01;;;;;;;0.95;0.82;;;;;;;2.74;100.00;101337.66;10566351;28;20050;-79
2022/12/25 03:31:49;;;;;;;0.30;0.30;;;;;;;3.47;100.00;101311.56;10572656;28;20587;-79
2022/12/25 04:36:25;;;;;;;2.13;1.65;;;;;;;4.14;100.00;101235.56;10564052;28;20051;-82
2022/12/25 04:41:27;;;;;;;0.77;0.75;;;;;;;4.12;100.00;101232.88;10572659;28;20051;-82
2022/12/25 04:46:28;;;;;;;0.60;0.60;;;;;;;4.09;100.00;101231.88;10570027;28;20047;-81
2022/12/25 04:51:30;;;;;;;1.17;0.93;;;;;;;4.18;100.00;101228.00;10570383;28;20051;-81
2022/12/25 04:56:32;;;;;;;0.60;0.60;;;;;;;4.18;100.00;101220.22;10550701;28;20059;-81
2022/12/25 05:01:33;;;;;;;3.17;2.17;;;;;;;4.41;100.00;101238.63;10570303;28;20047;-82
2022/12/25 05:06:35;;;;;;;0.40;0.40;;;;;;;4.60;100.00;101236.13;10569948;28;20043;-82
2022/12/25 05:11:38;;;;;;;1.75;1.17;;;;;;;4.77;100.00;101223.06;10569105;28;20534;-82
2022/12/25 05:16:39;;;;;;;4.03;1.88;;;;;;;4.86;100.00;101225.22;10568897;28;20040;-81
2022/12/25 05:21:41;;;;;;;4.78;4.40;;;;;;;4.96;100.00;101230.91;10550980;28;20035;-80
2022/12/25 05:26:42;;;;;;;4.38;3.97;;;;;;;5.00;100.00;101224.19;10569090;28;20048;-82
2022/12/25 05:31:44;;;;;;;3.10;2.50;;;;;;;5.08;100.00;101217.63;10570659;28;20047;-81
2022/12/25 05:36:46;;;;;;;3.83;2.60;;;;;;;5.12;100.00;101229.06;10568958;28;20502;-82
2022/12/25 05:41:47;;;;;;;3.42;1.25;;;;;;;5.17;100.00;101221.47;10551025;28;20040;-81
2022/12/25 05:46:49;;;;;;;2.03;1.77;;;;;;;5.17;100.00;101226.66;10568611;28;20040;-82
2022/12/25 05:51:51;;;;;;;2.03;1.58;;;;;;;5.14;100.00;101233.47;10569807;28;20507;-82
2022/12/25 05:56:52;;;;;;;11.43;10.52;;;;;;;5.15;100.00;101239.56;10567596;28;20038;-81
2022/12/25 06:01:54;;;;;;;38.05;35.47;;;;;;;5.18;100.00;101228.41;10548793;28;20038;-83
2022/12/25 06:06:56;;;;;;;7.10;6.53;;;;;;;5.20;100.00;101219.00;10567231;28;20031;-82
2022/12/25 06:11:58;;;;;;;25.33;22.67;;;;;;;5.16;100.00;101225.75;10568552;28;20073;-81
2022/12/25 06:16:59;;;;;;;2.13;1.30;;;;;;;5.18;100.00;101228.41;10568227;28;20047;-82
2022/12/25 06:22:01;;;;;;;9.25;8.52;;;;;;;5.22;100.00;101223.44;10567622;28;20055;-82
2022/12/25 06:27:02;;;;;;;5.97;5.43;;;;;;;5.23;100.00;101224.34;10567430;28;20082;-83
2022/12/25 06:32:04;;;;;;;1.55;1.15;;;;;;;5.33;100.00;101218.75;10569040;28;20047;-82
2022/12/25 06:37:05;;;;;;;0.95;0.85;;;;;;;5.37;100.00;101225.84;10574971;28;20043;-82
2022/12/25 06:42:07;;;;;;;0.85;0.73;;;;;;;5.42;100.00;101216.56;10575136;28;20044;-82
2022/12/25 06:47:09;;;;;;;1.10;1.00;;;;;;;5.51;100.00;101212.59;10574042;28;20047;-82
2022/12/25 06:52:11;;;;;;;2.22;1.55;;;;;;;5.54;100.00;101217.91;10555882;28;20048;-82
2022/12/25 06:57:12;;;;;;;0.93;0.73;;;;;;;5.60;100.00;101228.56;10556047;28;20043;-82
2022/12/25 07:02:20;;;;;;;2.22;1.27;;;;;;;5.64;100.00;101227.91;10558330;28;20092;-82
2022/12/25 07:07:22;;;;;;;0.80;0.45;;;;;;;5.71;100.00;101227.34;10578733;28;20063;-79
2022/12/25 07:12:24;;;;;;;1.90;1.08;;;;;;;5.74;100.00;101206.69;10570601;28;20047;-81
2022/12/25 07:17:26;;;;;;;0.43;0.38;;;;;;;5.80;100.00;101211.28;10542651;28;20054;-82
2022/12/25 07:22:28;;;;;;;5.93;1.95;;;;;;;5.83;100.00;101217.50;10553516;28;20052;-82
2022/12/25 07:27:30;;;;;;;2.45;1.48;;;;;;;5.88;100.00;101209.00;10568902;28;20256;-82
2022/12/25 07:32:31;;;;;;;4.47;1.90;;;;;;;5.97;100.00;101191.22;10584043;27;20054;-81
2022/12/25 07:37:33;;;;;;;1.52;0.90;;;;;;;5.96;100.00;101192.00;10584336;27;20525;-80
2022/12/25 07:42:34;;;;;;;0.88;0.68;;;;;;;5.99;100.00;101186.97;10575140;28;20043;-81
2022/12/25 07:47:36;;;;;;;0.70;0.50;;;;;;;6.01;100.00;101190.53;10578277;28;20066;-82
2022/12/25 07:52:37;;;;;;;1.98;0.88;;;;;;;6.07;100.00;101190.81;10576078;28;20073;-80
2022/12/25 07:57:44;;;;;;;3.20;1.02;;;;;;;6.08;100.00;101187.38;10565926;27;20760;-81
2022/12/25 08:02:48;;;;;;;1.55;0.98;;;;;;;6.14;100.00;101192.84;10561095;28;20048;-81
2022/12/25 08:07:52;;;;;;;1.23;1.08;;;;;;;6.23;100.00;101192.34;10558553;28;20123;-80
2022/12/25 08:12:58;;;;;;;0.98;0.90;;;;;;;6.25;100.00;101190.69;10577758;28;20081;-81
2022/12/25 08:18:00;;;;;;;2.30;1.52;;;;;;;6.25;100.00;101195.00;10576056;28;20058;-82
2022/12/25 08:23:01;;;;;;;3.42;1.95;;;;;;;6.33;100.00;101207.47;10575164;28;20043;-82
2022/12/25 08:28:03;;;;;;;3.20;1.55;;;;;;;6.35;100.00;101220.53;10578814;28;20120;-82
2022/12/25 08:33:06;;;;;;;5.97;1.85;;;;;;;6.35;100.00;101217.94;10582797;28;20047;-83
2022/12/25 08:38:07;;;;;;;2.08;1.10;;;;;;;6.40;100.00;101210.34;10580545;28;20055;-80
2022/12/25 08:43:09;;;;;;;2.35;1.23;;;;;;;6.44;100.00;101194.00;10581125;28;20058;-79
2022/12/25 08:48:11;;;;;;;1.30;1.00;;;;;;;6.48;100.00;101195.91;10565634;28;20043;-80
2022/12/25 08:53:13;;;;;;;2.88;1.25;;;;;;;6.47;100.00;101186.34;10583784;28;20043;-81
2022/12/25 08:58:15;;;;;;;1.08;0.95;;;;;;;6.51;100.00;101181.31;10583068;28;20689;-82
2022/12/25 09:03:17;;;;;;;2.55;1.35;;;;;;;6.59;100.00;101198.94;10561233;28;20078;-82
2022/12/25 09:08:20;;;;;;;1.90;0.95;;;;;;;6.58;100.00;101207.59;10579991;27;20052;-82
2022/12/25 09:13:22;;;;;;;1.25;1.00;;;;;;;6.60;100.00;101226.75;10577904;28;20047;-82
2022/12/25 09:18:24;;;;;;;1.42;0.88;;;;;;;6.59;100.00;101222.38;10577674;28;20096;-82
2022/12/25 09:23:26;;;;;;;1.70;1.30;;;;;;;6.62;100.00;101220.78;10542990;28;20078;-81
2022/12/25 09:28:28;;;;;;;4.63;1.33;;;;;;;6.56;100.00;101217.94;10577072;28;20054;-80
2022/12/25 09:33:30;;;;;;;1.17;1.08;;;;;;;6.58;100.00;101194.59;10558137;28;20047;-82
2022/12/25 09:38:32;;;;;;;2.05;1.42;;;;;;;6.53;100.00;101205.69;10559135;28;20542;-82
2022/12/25 09:43:39;;;;;;;1.95;1.17;;;;;;;6.57;100.00;101205.81;10569530;28;20202;-83
2022/12/25 09:48:57;;;;;;;1.38;1.23;;;;;;;6.61;100.00;101212.94;10577561;28;20047;-83
2022/12/25 09:54:09;;;;;;;3.22;1.35;;;;;;;6.65;100.00;101174.06;10558399;28;20040;-82
2022/12/25 09:59:24;;;;;;;2.88;1.90;;;;;;;6.72;100.00;101162.19;10565120;28;20054;-84
2022/12/25 10:05:01;;;;;;;3.33;3.03;;;;;;;6.75;100.00;101158.81;10559870;28;20040;-82
2022/12/25 10:10:19;;;;;;;1.05;0.95;;;;;;;6.79;100.00;101156.38;10555308;28;20050;-84
2022/12/25 10:15:53;;;;;;;0.85;0.82;;;;;;;6.83;100.00;101171.28;10579630;28;20107;-84
2022/12/25 10:20:58;;;;;;;0.32;0.32;;;;;;;6.84;100.00;101164.38;10557230;28;20780;-83
2022/12/25 10:26:00;;;;;;;2.47;1.13;;;;;;;6.88;100.00;101171.47;10579623;28;20096;-84
2022/12/25 10:31:24;;;;;;;2.28;1.17;;;;;;;6.94;100.00;101160.41;10563830;28;20062;-83
2022/12/25 10:36:28;;;;;;;0.75;0.55;;;;;;;7.01;100.00;101160.69;10581790;28;20040;-82
2022/12/25 10:42:16;;;;;;;0.70;0.43;;;;;;;7.03;100.00;101134.72;10565597;28;20466;-83
2022/12/25 10:47:27;;;;;;;0.40;0.40;;;;;;;7.06;100.00;101127.00;10566710;28;20552;-82
2022/12/25 10:52:28;;;;;;;0.88;0.77;;;;;;;7.06;100.00;101135.69;10588612;28;20051;-81
2022/12/25 10:57:30;;;;;;;1.48;0.88;;;;;;;7.07;100.00;101126.16;10567203;28;20063;-82
2022/12/25 11:02:39;;;;;;;0.38;0.38;;;;;;;7.10;100.00;101130.59;10579327;28;20051;-83
2022/12/25 11:07:49;;;;;;;0.82;0.77;;;;;;;7.16;100.00;101138.63;10576826;28;20051;-82
2022/12/25 11:12:52;;;;;;;1.45;1.10;;;;;;;7.15;100.00;101142.97;10587514;28;20100;-83
2022/12/25 11:17:54;;;;;;;2.05;1.05;;;;;;;7.17;100.00;101141.28;10585273;28;20043;-82
2022/12/25 11:22:56;;;;;;;0.43;0.30;;;;;;;7.18;100.00;101150.91;10590988;28;20624;-82
2022/12/25 11:28:00;;;;;;;0.82;0.50;;;;;;;7.21;100.00;101143.19;10587002;28;20067;-82
2022/12/25 11:33:10;;;;;;;1.15;0.65;;;;;;;7.20;100.00;101125.78;10583122;28;20054;-82
2022/12/25 11:38:12;;;;;;;1.05;0.70;;;;;;;7.29;100.00;101121.75;10565494;28;20131;-81
2022/12/25 11:43:21;;;;;;;1.23;0.75;;;;;;;7.34;100.00;101101.94;10567895;28;20043;-83
2022/12/25 11:48:32;;;;;;;0.70;0.47;;;;;;;7.34;100.00;101096.72;10538452;28;20137;-82
2022/12/25 11:53:38;;;;;;;1.40;0.40;;;;;;;7.37;100.00;101087.31;10566007;27;20183;-81
2022/12/25 11:58:45;;;;;;;0.73;0.73;;;;;;;7.38;100.00;101077.78;10565781;27;20079;-81
2022/12/25 12:03:48;;;;;;;0.43;0.43;;;;;;;7.35;100.00;101055.09;10577234;27;20063;-82
2022/12/25 12:08:55;;;;;;;0.32;0.32;;;;;;;7.35;100.00;101052.50;10578840;28;20053;-81
2022/12/25 12:13:58;;;;;;;2.88;1.15;;;;;;;7.37;100.00;101049.94;10576491;28;20097;-82
2022/12/25 12:19:11;;;;;;;1.65;0.70;;;;;;;7.34;100.00;101035.13;10556636;28;20063;-81
2022/12/25 12:24:20;;;;;;;0.77;0.65;;;;;;;7.34;100.00;101022.09;10555561;28;20048;-82
2022/12/25 12:29:26;;;;;;;1.00;0.73;;;;;;;7.33;100.00;101011.63;10567630;28;20056;-81
2022/12/25 12:34:41;;;;;;;1.42;0.98;;;;;;;7.31;100.00;100992.44;10570572;28;20430;-82
2022/12/25 12:39:43;;;;;;;2.15;0.85;;;;;;;7.30;100.00;100985.47;10588810;27;20056;-82
2022/12/25 12:44:46;;;;;;;1.15;0.93;;;;;;;7.28;100.00;100985.44;10532603;28;20039;-82
2022/12/25 12:49:56;;;;;;;0.98;0.40;;;;;;;7.31;100.00;100982.00;10573110;28;20548;-82
2022/12/25 12:55:01;;;;;;;0.33;0.33;;;;;;;7.36;100.00;100975.25;10555516;28;20044;-82
2022/12/25 13:00:04;;;;;;;2.60;2.25;;;;;;;7.32;100.00;100981.19;10540044;28;20136;-82
2022/12/25 13:05:34;;;;;;;3.00;1.25;;;;;;;7.36;100.00;100981.34;10540353;28;20541;-82
2022/12/25 13:10:40;;;;;;;1.75;1.30;;;;;;;7.32;100.00;100971.66;10557705;28;20127;-80
2022/12/25 13:15:45;;;;;;;1.38;0.90;;;;;;;7.33;100.00;100968.22;10555804;28;20047;-81
2022/12/25 13:20:55;;;;;;;0.73;0.65;;;;;;;7.30;100.00;100982.88;10566698;28;20040;-82
2022/12/25 13:26:15;;;;;;;1.67;1.13;;;;;;;7.26;100.00;100956.69;10531478;28;20088;-81
2022/12/25 13:31:17;;;;;;;;;;;;;;;7.28;100.00;100954.16;10573790;28;20044;-81
2022/12/25 13:36:19;;;;;;;0.63;0.45;;;;;;;7.18;100.00;100955.56;10569863;28;19919;-84
2022/12/25 13:46:49;;;;;;;1.23;1.17;;;;;;;7.19;100.00;100938.22;10551634;28;20449;-84
2022/12/25 13:51:51;;;;;;;1.00;0.85;;;;;;;7.20;100.00;100926.97;10567374;28;20142;-84
2022/12/25 13:56:54;;;;;;;0.38;0.38;;;;;;;7.12;100.00;100933.66;10566759;28;20044;-84
2022/12/25 14:02:05;;;;;;;0.90;0.57;;;;;;;7.04;100.00;100921.25;10567290;28;20126;-85
2022/12/25 14:07:09;;;;;;;1.13;0.57;;;;;;;7.03;100.00;100909.06;10549272;28;20047;-83
2022/12/25 14:12:11;;;;;;;0.57;0.52;;;;;;;6.96;100.00;100916.63;10571415;28;20046;-84
2022/12/25 14:17:21;;;;;;;1.48;1.05;;;;;;;6.96;100.00;100916.63;10550788;28;20047;-85
2022/12/25 14:22:24;;;;;;;0.77;0.77;;;;;;;6.94;100.00;100898.34;10551133;28;20105;-83
2022/12/25 14:27:29;;;;;;;0.40;0.40;;;;;;;6.95;100.00;100909.63;10548735;28;20040;-84
2022/12/25 14:32:41;;;;;;;0.85;0.80;;;;;;;6.93;100.00;100899.16;10545955;28;20036;-86
2022/12/25 14:37:42;;;;;;;1.95;1.67;;;;;;;6.98;100.00;100873.28;10562709;28;20040;-85
2022/12/25 14:42:56;;;;;;;0.57;0.52;;;;;;;6.95;100.00;100870.56;10544684;28;20524;-86
2022/12/25 14:48:14;;;;;;;0.25;0.25;;;;;;;6.90;100.00;100866.13;10556825;28;20046;-86
2022/12/25 14:53:33;;;;;;;0.28;0.28;;;;;;;6.93;100.00;100886.16;10546342;28;20486;-87
2022/12/25 14:58:42;;;;;;;1.05;0.65;;;;;;;6.90;100.00;100896.47;10580269;28;20046;-85
2022/12/25 15:03:44;;;;;;;1.38;1.10;;;;;;;6.84;100.00;100886.72;10576308;28;20146;-85
2022/12/25 15:09:15;;;;;;;0.55;0.55;;;;;;;6.80;100.00;100883.97;10573200;28;20048;-84
2022/12/25 15:14:17;;;;;;;2.88;1.33;;;;;;;6.81;100.00;100880.53;10548413;28;20040;-85
2022/12/25 15:19:23;;;;;;;0.88;0.80;;;;;;;6.82;100.00;100885.78;10572711;28;20039;-85
2022/12/25 15:24:29;;;;;;;2.33;1.65;;;;;;;6.80;100.00;100873.56;10583882;28;20043;-85
2022/12/25 15:29:31;;;;;;;1.52;1.17;;;;;;;6.81;100.00;100867.53;10557836;28;20510;-84
2022/12/25 15:34:53;;;;;;;2.35;1.67;;;;;;;6.78;100.00;100852.69;10556783;28;20044;-86
2022/12/25 15:39:56;;;;;;;2.15;1.70;;;;;;;6.79;100.00;100840.56;10567491;28;20780;-85
2022/12/25 15:44:58;;;;;;;1.20;0.95;;;;;;;6.77;100.00;100829.22;10571411;27;20047;-85
2022/12/25 15:49:59;;;;;;;1.80;0.88;;;;;;;6.80;100.00;100816.28;10602680;27;20058;-84
2022/12/25 15:55:01;;;;;;;0.60;0.60;;;;;;;6.76;100.00;100819.66;10610922;27;20079;-84
2022/12/25 16:00:07;;;;;;;0.98;0.70;;;;;;;6.78;100.00;100803.22;10562258;27;20039;-84
2022/12/25 16:05:14;;;;;;;0.95;0.55;;;;;;;6.78;100.00;100800.63;10559513;28;20074;-84
2022/12/25 16:10:18;;;;;;;0.63;0.63;;;;;;;6.77;100.00;100811.00;10602533;27;20044;-83
2022/12/25 16:15:20;;;;;;;1.15;0.80;;;;;;;6.80;100.00;100805.88;10603536;27;20031;-82
2022/12/25 16:20:22;;;;;;;1.35;0.98;;;;;;;6.77;100.00;100806.69;10579464;27;20706;-83
2022/12/25 16:25:23;;;;;;;0.82;0.65;;;;;;;6.77;100.00;100805.78;10585148;27;20166;-83
2022/12/25 16:30:25;;;;;;;2.22;1.23;;;;;;;6.76;100.00;100810.13;10571768;27;20059;-85
2022/12/25 16:35:27;;;;;;;0.75;0.68;;;;;;;6.80;100.00;100809.38;10579792;27;20498;-85
2022/12/25 16:40:30;;;;;;;2.03;1.27;;;;;;;6.80;100.00;100809.38;10579103;27;20844;-85
2022/12/25 16:45:37;;;;;;;0.88;0.60;;;;;;;6.82;100.00;100814.66;10591131;27;20043;-86
2022/12/25 16:50:39;;;;;;;1.88;0.98;;;;;;;6.77;100.00;100804.09;10591210;27;20491;-85
2022/12/25 16:55:42;;;;;;;2.78;2.08;;;;;;;6.77;100.00;100800.56;10564296;27;20035;-85
2022/12/25 17:00:43;;;;;;;1.50;0.80;;;;;;;6.76;100.00;100789.28;10564305;27;20031;-83
2022/12/25 17:05:50;;;;;;;2.40;1.30;;;;;;;6.77;100.00;100787.56;10580990;27;20250;-86
2022/12/25 17:10:51;;;;;;;1.92;1.15;;;;;;;6.73;100.00;100776.19;10565039;27;20705;-85
2022/12/25 17:15:53;;;;;;;1.27;1.17;;;;;;;6.71;100.00;100759.63;10562934;27;20489;-85
2022/12/25 17:20:55;;;;;;;6.32;3.10;;;;;;;6.67;100.00;100757.78;10574793;27;20126;-84
2022/12/25 17:26:00;;;;;;;3.80;2.80;;;;;;;6.69;100.00;100761.31;10590254;27;20093;-85
2022/12/25 17:31:03;;;;;;;3.33;2.13;;;;;;;6.66;100.00;100749.06;10582300;27;20031;-85
2022/12/25 17:36:09;;;;;;;1.58;1.15;;;;;;;6.67;100.00;100748.25;10597023;27;20043;-84
2022/12/25 17:41:13;;;;;;;1.65;1.02;;;;;;;6.66;100.00;100743.00;10577573;27;20043;-83
2022/12/25 17:46:17;;;;;;;1.77;1.30;;;;;;;6.66;100.00;100735.19;10599436;27;20039;-83
2022/12/25 17:51:21;;;;;;;2.83;1.60;;;;;;;6.65;100.00;100723.91;10592996;27;20042;-84
2022/12/25 17:56:23;;;;;;;2.00;1.45;;;;;;;6.66;100.00;100724.78;10588404;28;20039;-84
2022/12/25 18:01:26;;;;;;;2.55;1.65;;;;;;;6.68;100.00;100717.88;10565448;28;20509;-83
2022/12/25 18:06:29;;;;;;;1.85;1.50;;;;;;;6.71;100.00;100728.38;10560927;28;20032;-82
2022/12/25 18:11:33;;;;;;;1.92;1.50;;;;;;;6.71;100.00;100731.00;10564186;28;20096;-83
2022/12/25 18:16:39;;;;;;;2.03;1.20;;;;;;;6.73;100.00;100716.34;10588969;28;20035;-83
2022/12/25 18:21:41;;;;;;;1.48;1.17;;;;;;;6.74;100.00;100720.72;10570433;28;20062;-84
2022/12/25 18:26:44;;;;;;;1.80;1.40;;;;;;;6.72;100.00;100724.97;10581224;28;20456;-83
2022/12/25 18:31:46;;;;;;;1.40;1.00;;;;;;;6.72;100.00;100704.16;10584089;27;20044;-84
2022/12/25 18:36:48;;;;;;;1.80;1.23;;;;;;;6.75;100.00;100685.16;10571986;27;20036;-84
2022/12/25 18:47:10;;;;;;;;;;;;;;;6.69;100.00;100706.66;10581729;27;20086;-83
2022/12/25 18:52:11;;;;;;;3.10;1.88;;;;;;;6.67;100.00;100706.59;10581336;27;19923;-82
2022/12/25 18:57:33;;;;;;;5.32;2.72;;;;;;;6.69;100.00;100699.72;10599752;27;20514;-84
2022/12/25 19:02:35;;;;;;;6.70;3.90;;;;;;;6.73;100.00;100674.69;10596453;27;20055;-83
2022/12/25 19:07:37;;;;;;;4.80;2.83;;;;;;;6.75;100.00;100670.41;10595716;27;20043;-83
2022/12/25 19:12:39;;;;;;;6.57;2.47;;;;;;;6.73;100.00;100685.97;10591972;27;20544;-83
2022/12/25 19:17:40;;;;;;;7.53;3.33;;;;;;;6.73;100.00;100685.97;10608422;27;20066;-83
2022/12/25 19:22:43;;;;;;;3.28;2.00;;;;;;;6.72;100.00;100691.13;10565850;27;20043;-82
2022/12/25 19:27:45;;;;;;;2.55;1.67;;;;;;;6.70;100.00;100682.41;10554636;28;20053;-83
2022/12/25 19:32:47;;;;;;;5.25;2.83;;;;;;;6.71;100.00;100681.56;10556636;28;20043;-83
2022/12/25 19:37:49;;;;;;;5.03;3.30;;;;;;;6.70;100.00;100679.81;10594959;27;20439;-83
2022/12/25 19:42:50;;;;;;;2.63;2.00;;;;;;;6.68;100.00;100684.97;10569566;27;20075;-84
2022/12/25 19:47:52;;;;;;;3.97;2.08;;;;;;;6.66;100.00;100683.13;10595612;27;20040;-84
2022/12/25 19:52:54;;;;;;;3.47;1.98;;;;;;;6.66;100.00;100683.13;10589710;27;20130;-86
2022/12/25 19:57:58;;;;;;;5.78;3.15;;;;;;;6.66;100.00;100678.81;10561930;27;20471;-83
2022/12/25 20:03:00;;;;;;;5.60;2.75;;;;;;;6.66;100.00;100671.00;10599692;27;20445;-84
2022/12/25 20:08:01;;;;;;;4.80;3.00;;;;;;;6.67;100.00;100674.50;10589489;27;20115;-83
2022/12/25 20:13:03;;;;;;;5.07;3.15;;;;;;;6.69;100.00;100668.50;10604473;27;20053;-84
2022/12/25 20:18:05;;;;;;;4.18;2.35;;;;;;;6.68;100.00;100671.94;10568572;28;20044;-84
2022/12/25 20:23:06;;;;;;;5.80;3.22;;;;;;;6.66;100.00;100673.59;10560481;27;20063;-83
2022/12/25 20:28:08;;;;;;;4.70;2.25;;;;;;;6.64;100.00;100674.41;10586857;27;20059;-83
2022/12/25 20:33:10;;;;;;;8.32;3.58;;;;;;;6.65;100.00;100682.28;10562054;27;20130;-84
2022/12/25 20:38:11;;;;;;;6.63;3.58;;;;;;;6.65;100.00;100677.06;10579349;27;20086;-83
2022/12/25 20:43:13;;;;;;;5.53;2.72;;;;;;;6.64;100.00;100682.22;10569268;27;20329;-82
2022/12/25 20:48:14;;;;;;;5.32;2.60;;;;;;;6.65;100.00;100671.84;10587525;27;20039;-83
2022/12/25 20:53:16;;;;;;;7.10;4.25;;;;;;;6.65;100.00;100677.06;10595542;27;20058;-82
2022/12/25 20:58:18;;;;;;;7.75;4.07;;;;;;;6.66;100.00;100667.53;10603497;27;20051;-82
2022/12/25 21:03:19;;;;;;;3.67;2.42;;;;;;;6.66;100.00;100668.41;10597583;27;20043;-83
2022/12/25 21:08:24;;;;;;;5.28;2.63;;;;;;;6.67;100.00;100682.31;10560875;27;20059;-82
2022/12/25 21:13:31;;;;;;;4.20;2.70;;;;;;;6.65;100.00;100670.94;10576621;27;20051;-82
2022/12/25 21:18:32;;;;;;;9.45;6.00;;;;;;;6.64;100.00;100672.69;10602275;27;20125;-82
2022/12/25 21:23:36;;;;;;;5.55;3.28;;;;;;;6.64;100.00;100684.81;10587872;27;20035;-82
2022/12/25 21:28:42;;;;;;;6.45;3.38;;;;;;;6.67;100.00;100687.53;10583117;27;20035;-84
2022/12/25 21:33:51;;;;;;;5.85;3.25;;;;;;;6.68;100.00;100684.06;10600390;27;20053;-82
2022/12/25 21:38:54;;;;;;;6.90;4.13;;;;;;;6.67;100.00;100670.19;10581244;27;20070;-82
2022/12/25 21:43:56;;;;;;;6.80;4.28;;;;;;;6.71;100.00;100681.56;10568362;27;20047;-83
2022/12/25 21:48:58;;;;;;;7.60;4.13;;;;;;;6.68;100.00;100676.25;10588045;27;20049;-83
2022/12/25 21:54:05;;;;;;;4.43;2.63;;;;;;;6.69;100.00;100667.63;10582359;28;20055;-83
2022/12/25 21:59:08;;;;;;;5.35;3.05;;;;;;;6.71;100.00;100676.34;10563082;28;20035;-82
2022/12/25 22:04:11;;;;;;;4.00;2.47;;;;;;;6.71;100.00;100676.34;10583715;28;20522;-83
2022/12/25 22:09:13;;;;;;;4.53;2.60;;;;;;;6.70;100.00;100682.41;10586509;28;20119;-83
2022/12/25 22:19:54;;;;;;;1.95;1.33;;;;;;;6.71;100.00;100682.44;10585830;27;20043;-81
2022/12/25 22:24:59;;;;;;;1.45;1.35;;;;;;;6.71;100.00;100672.03;10582396;28;20527;-82
2022/12/25 22:30:01;;;;;;;4.75;2.83;;;;;;;6.69;100.00;100685.84;10547203;28;20047;-83
2022/12/25 22:35:03;;;;;;;4.00;2.25;;;;;;;6.66;100.00;100698.75;10585482;28;20052;-84
2022/12/25 22:40:07;;;;;;;3.83;2.28;;;;;;;6.65;100.00;100703.09;10585089;28;20047;-83
2022/12/25 22:45:09;;;;;;;2.78;1.80;;;;;;;6.67;100.00;100701.41;10567280;28;20067;-82
2022/12/25 22:50:13;;;;;;;5.00;2.65;;;;;;;6.70;100.00;100711.03;10580324;28;20139;-82
2022/12/25 22:55:17;;;;;;;4.22;2.53;;;;;;;6.69;100.00;100711.84;10582112;28;20047;-82
2022/12/25 23:00:19;;;;;;;2.28;1.45;;;;;;;6.71;100.00;100692.88;10578654;28;20044;-84
2022/12/25 23:05:20;;;;;;;3.55;2.28;;;;;;;6.72;100.00;100691.13;10559592;27;20121;-82
2022/12/25 23:10:22;;;;;;;3.20;1.40;;;;;;;6.68;100.00;100676.25;10571483;27;20039;-82
2022/12/25 23:15:26;;;;;;;4.18;2.22;;;;;;;6.65;100.00;100665.75;10616002;27;20164;-83
2022/12/25 23:26:06;;;;;;;4.18;1.90;;;;;;;6.62;100.00;100684.78;10601919;27;20044;-83
2022/12/25 23:31:08;;;;;;;2.73;1.47;;;;;;;6.59;100.00;100696.78;10614895;27;20063;-83
2022/12/25 23:36:09;;;;;;;1.92;1.35;;;;;;;6.59;100.00;100686.38;10594320;27;20100;-83
2022/12/25 23:41:11;;;;;;;2.42;1.42;;;;;;;6.55;100.00;100696.69;10591117;27;20056;-82
2022/12/25 23:46:13;;;;;;;1.55;1.20;;;;;;;6.49;100.00;100703.44;10578913;27;20502;-82
2022/12/25 23:51:15;;;;;;;1.02;0.90;;;;;;;6.47;100.00;100713.78;10572120;27;20039;-82
2022/12/25 23:56:17;;;;;;;1.23;1.13;;;;;;;6.47;100.00;100713.78;10587313;27;20047;-83
